sensor_id;sensor_type;location;lat;lon;timestamp;P1;durP1;ratioP1;P2;durP2;ratioP2
70825;SDS011;58446;41.490;22.098;2024-03-07T00:00:34;14.00;;;8.47;;
70825;SDS011;58446;41.490;22.098;2024-03-07T00:03:00;14.77;;;8.35;;
70825;SDS011;58446;41.490;22.098;2024-03-07T00:05:25;12.32;;;8.32;;
70825;SDS011;58446;41.490;22.098;2024-03-07T00:07:52;13.07;;;7.93;;
70825;SDS011;58446;41.490;22.098;2024-03-07T00:10:18;13.53;;;8.37;;
70825;SDS011;58446;41.490;22.098;2024-03-07T00:12:44;13.95;;;8.25;;
70825;SDS011;58446;41.490;22.098;2024-03-07T00:15:11;16.35;;;9.00;;
70825;SDS011;58446;41.490;22.098;2024-03-07T00:17:38;15.13;;;8.77;;
70825;SDS011;58446;41.490;22.098;2024-03-07T00:20:04;12.63;;;7.67;;
70825;SDS011;58446;41.490;22.098;2024-03-07T00:22:34;12.32;;;7.97;;
70825;SDS011;58446;41.490;22.098;2024-03-07T00:25:01;12.52;;;8.30;;
70825;SDS011;58446;41.490;22.098;2024-03-07T00:27:30;12.52;;;8.70;;
70825;SDS011;58446;41.490;22.098;2024-03-07T00:29:56;15.20;;;8.27;;
70825;SDS011;58446;41.490;22.098;2024-03-07T00:32:24;12.30;;;8.18;;
70825;SDS011;58446;41.490;22.098;2024-03-07T00:34:52;12.43;;;8.10;;
70825;SDS011;58446;41.490;22.098;2024-03-07T00:37:17;12.53;;;7.97;;
70825;SDS011;58446;41.490;22.098;2024-03-07T00:39:43;11.70;;;7.80;;
70825;SDS011;58446;41.490;22.098;2024-03-07T00:42:09;14.65;;;11.27;;
70825;SDS011;58446;41.490;22.098;2024-03-07T00:44:35;14.00;;;9.13;;
70825;SDS011;58446;41.490;22.098;2024-03-07T00:47:01;23.35;;;13.13;;
70825;SDS011;58446;41.490;22.098;2024-03-07T00:49:27;18.05;;;11.40;;
70825;SDS011;58446;41.490;22.098;2024-03-07T00:51:54;17.63;;;10.02;;
70825;SDS011;58446;41.490;22.098;2024-03-07T00:54:20;15.40;;;10.50;;
70825;SDS011;58446;41.490;22.098;2024-03-07T00:56:46;15.40;;;9.38;;
70825;SDS011;58446;41.490;22.098;2024-03-07T00:59:14;20.42;;;12.23;;
70825;SDS011;58446;41.490;22.098;2024-03-07T01:01:41;19.75;;;12.02;;
70825;SDS011;58446;41.490;22.098;2024-03-07T01:04:07;20.00;;;12.10;;
70825;SDS011;58446;41.490;22.098;2024-03-07T01:06:33;17.85;;;11.55;;
70825;SDS011;58446;41.490;22.098;2024-03-07T01:08:59;15.95;;;8.85;;
70825;SDS011;58446;41.490;22.098;2024-03-07T01:11:25;13.80;;;8.27;;
70825;SDS011;58446;41.490;22.098;2024-03-07T01:13:51;14.90;;;9.77;;
70825;SDS011;58446;41.490;22.098;2024-03-07T01:16:17;20.83;;;13.85;;
70825;SDS011;58446;41.490;22.098;2024-03-07T01:18:42;19.23;;;11.80;;
70825;SDS011;58446;41.490;22.098;2024-03-07T01:21:08;24.57;;;13.97;;
70825;SDS011;58446;41.490;22.098;2024-03-07T01:23:35;20.57;;;13.13;;
70825;SDS011;58446;41.490;22.098;2024-03-07T01:26:00;19.58;;;12.00;;
70825;SDS011;58446;41.490;22.098;2024-03-07T01:28:28;19.88;;;12.35;;
70825;SDS011;58446;41.490;22.098;2024-03-07T01:30:56;20.48;;;12.80;;
70825;SDS011;58446;41.490;22.098;2024-03-07T01:33:23;19.03;;;12.47;;
70825;SDS011;58446;41.490;22.098;2024-03-07T01:35:49;21.08;;;12.98;;
70825;SDS011;58446;41.490;22.098;2024-03-07T01:38:15;22.08;;;12.80;;
70825;SDS011;58446;41.490;22.098;2024-03-07T01:40:42;14.73;;;10.07;;
70825;SDS011;58446;41.490;22.098;2024-03-07T01:43:09;15.07;;;9.65;;
70825;SDS011;58446;41.490;22.098;2024-03-07T01:45:36;14.52;;;9.68;;
70825;SDS011;58446;41.490;22.098;2024-03-07T01:48:05;15.95;;;9.05;;
70825;SDS011;58446;41.490;22.098;2024-03-07T01:50:34;13.00;;;8.25;;
70825;SDS011;58446;41.490;22.098;2024-03-07T01:53:04;13.17;;;8.77;;
70825;SDS011;58446;41.490;22.098;2024-03-07T01:55:31;14.00;;;10.10;;
70825;SDS011;58446;41.490;22.098;2024-03-07T01:58:02;13.15;;;9.05;;
70825;SDS011;58446;41.490;22.098;2024-03-07T02:00:29;16.05;;;9.75;;
70825;SDS011;58446;41.490;22.098;2024-03-07T02:02:56;16.50;;;9.88;;
70825;SDS011;58446;41.490;22.098;2024-03-07T02:05:22;18.77;;;9.03;;
70825;SDS011;58446;41.490;22.098;2024-03-07T02:07:49;13.75;;;8.68;;
70825;SDS011;58446;41.490;22.098;2024-03-07T02:10:15;14.55;;;9.13;;
70825;SDS011;58446;41.490;22.098;2024-03-07T02:12:41;16.50;;;9.68;;
70825;SDS011;58446;41.490;22.098;2024-03-07T02:15:07;14.85;;;8.75;;
70825;SDS011;58446;41.490;22.098;2024-03-07T02:17:34;14.03;;;9.03;;
70825;SDS011;58446;41.490;22.098;2024-03-07T02:20:01;13.88;;;8.98;;
70825;SDS011;58446;41.490;22.098;2024-03-07T02:22:29;14.25;;;7.93;;
70825;SDS011;58446;41.490;22.098;2024-03-07T02:24:55;19.10;;;10.75;;
70825;SDS011;58446;41.490;22.098;2024-03-07T02:27:21;17.87;;;10.03;;
70825;SDS011;58446;41.490;22.098;2024-03-07T02:29:47;17.00;;;10.20;;
70825;SDS011;58446;41.490;22.098;2024-03-07T02:32:14;16.83;;;9.73;;
70825;SDS011;58446;41.490;22.098;2024-03-07T02:34:39;15.35;;;9.60;;
70825;SDS011;58446;41.490;22.098;2024-03-07T02:37:05;15.60;;;9.50;;
70825;SDS011;58446;41.490;22.098;2024-03-07T02:39:31;16.67;;;9.02;;
70825;SDS011;58446;41.490;22.098;2024-03-07T02:41:56;16.33;;;10.17;;
70825;SDS011;58446;41.490;22.098;2024-03-07T02:44:22;16.67;;;10.07;;
70825;SDS011;58446;41.490;22.098;2024-03-07T02:46:48;17.53;;;10.27;;
70825;SDS011;58446;41.490;22.098;2024-03-07T02:49:13;17.77;;;10.20;;
70825;SDS011;58446;41.490;22.098;2024-03-07T02:51:39;17.27;;;10.07;;
70825;SDS011;58446;41.490;22.098;2024-03-07T02:54:07;16.35;;;10.52;;
70825;SDS011;58446;41.490;22.098;2024-03-07T02:56:33;16.08;;;10.13;;
70825;SDS011;58446;41.490;22.098;2024-03-07T02:58:59;24.25;;;11.43;;
70825;SDS011;58446;41.490;22.098;2024-03-07T03:01:25;17.47;;;10.07;;
70825;SDS011;58446;41.490;22.098;2024-03-07T03:03:51;16.23;;;10.20;;
70825;SDS011;58446;41.490;22.098;2024-03-07T03:06:16;21.00;;;11.00;;
70825;SDS011;58446;41.490;22.098;2024-03-07T03:08:45;20.33;;;10.25;;
70825;SDS011;58446;41.490;22.098;2024-03-07T03:11:11;15.60;;;10.05;;
70825;SDS011;58446;41.490;22.098;2024-03-07T03:13:40;17.02;;;9.63;;
70825;SDS011;58446;41.490;22.098;2024-03-07T03:16:06;17.92;;;10.65;;
70825;SDS011;58446;41.490;22.098;2024-03-07T03:18:32;17.40;;;10.63;;
70825;SDS011;58446;41.490;22.098;2024-03-07T03:21:02;17.95;;;10.63;;
70825;SDS011;58446;41.490;22.098;2024-03-07T03:23:28;18.70;;;11.48;;
70825;SDS011;58446;41.490;22.098;2024-03-07T03:25:54;17.27;;;10.65;;
70825;SDS011;58446;41.490;22.098;2024-03-07T03:28:20;19.53;;;11.63;;
70825;SDS011;58446;41.490;22.098;2024-03-07T03:30:47;17.30;;;11.17;;
70825;SDS011;58446;41.490;22.098;2024-03-07T03:33:13;15.75;;;11.15;;
70825;SDS011;58446;41.490;22.098;2024-03-07T03:35:40;15.85;;;10.68;;
70825;SDS011;58446;41.490;22.098;2024-03-07T03:38:06;23.75;;;13.77;;
70825;SDS011;58446;41.490;22.098;2024-03-07T03:40:33;25.90;;;15.05;;
70825;SDS011;58446;41.490;22.098;2024-03-07T03:42:59;20.20;;;12.07;;
70825;SDS011;58446;41.490;22.098;2024-03-07T03:45:25;22.00;;;12.73;;
70825;SDS011;58446;41.490;22.098;2024-03-07T03:47:52;25.13;;;13.20;;
70825;SDS011;58446;41.490;22.098;2024-03-07T03:50:18;27.98;;;14.30;;
70825;SDS011;58446;41.490;22.098;2024-03-07T03:52:44;21.60;;;12.98;;
70825;SDS011;58446;41.490;22.098;2024-03-07T03:55:10;21.53;;;13.23;;
70825;SDS011;58446;41.490;22.098;2024-03-07T03:57:39;24.10;;;15.00;;
70825;SDS011;58446;41.490;22.098;2024-03-07T04:00:07;22.20;;;13.27;;
70825;SDS011;58446;41.490;22.098;2024-03-07T04:02:42;16.70;;;10.90;;
70825;SDS011;58446;41.490;22.098;2024-03-07T04:05:14;17.20;;;9.77;;
70825;SDS011;58446;41.490;22.098;2024-03-07T04:07:44;15.85;;;9.38;;
70825;SDS011;58446;41.490;22.098;2024-03-07T04:10:11;15.68;;;9.35;;
70825;SDS011;58446;41.490;22.098;2024-03-07T04:12:38;17.35;;;10.32;;
70825;SDS011;58446;41.490;22.098;2024-03-07T04:15:06;12.93;;;9.15;;
70825;SDS011;58446;41.490;22.098;2024-03-07T04:17:34;15.13;;;9.40;;
70825;SDS011;58446;41.490;22.098;2024-03-07T04:20:03;15.63;;;9.82;;
70825;SDS011;58446;41.490;22.098;2024-03-07T04:22:35;15.75;;;10.23;;
70825;SDS011;58446;41.490;22.098;2024-03-07T04:25:04;16.83;;;10.18;;
70825;SDS011;58446;41.490;22.098;2024-03-07T04:27:32;17.65;;;10.05;;
70825;SDS011;58446;41.490;22.098;2024-03-07T04:29:59;17.93;;;10.40;;
70825;SDS011;58446;41.490;22.098;2024-03-07T04:32:28;16.98;;;10.02;;
70825;SDS011;58446;41.490;22.098;2024-03-07T04:34:54;16.65;;;9.48;;
70825;SDS011;58446;41.490;22.098;2024-03-07T04:37:22;14.10;;;8.82;;
70825;SDS011;58446;41.490;22.098;2024-03-07T04:39:48;14.27;;;8.70;;
70825;SDS011;58446;41.490;22.098;2024-03-07T04:42:14;18.17;;;9.48;;
70825;SDS011;58446;41.490;22.098;2024-03-07T04:44:40;15.60;;;9.60;;
70825;SDS011;58446;41.490;22.098;2024-03-07T04:47:06;14.37;;;9.53;;
70825;SDS011;58446;41.490;22.098;2024-03-07T04:49:33;15.95;;;9.30;;
70825;SDS011;58446;41.490;22.098;2024-03-07T04:52:00;15.50;;;9.57;;
70825;SDS011;58446;41.490;22.098;2024-03-07T04:54:28;16.17;;;9.43;;
70825;SDS011;58446;41.490;22.098;2024-03-07T04:56:55;16.05;;;9.23;;
70825;SDS011;58446;41.490;22.098;2024-03-07T04:59:21;14.43;;;9.50;;
70825;SDS011;58446;41.490;22.098;2024-03-07T05:01:48;17.50;;;8.88;;
70825;SDS011;58446;41.490;22.098;2024-03-07T05:04:17;18.00;;;9.57;;
70825;SDS011;58446;41.490;22.098;2024-03-07T05:06:43;15.13;;;8.63;;
70825;SDS011;58446;41.490;22.098;2024-03-07T05:09:13;14.27;;;9.45;;
70825;SDS011;58446;41.490;22.098;2024-03-07T05:11:48;15.40;;;9.43;;
70825;SDS011;58446;41.490;22.098;2024-03-07T05:14:14;16.13;;;8.45;;
70825;SDS011;58446;41.490;22.098;2024-03-07T05:16:41;14.10;;;9.85;;
70825;SDS011;58446;41.490;22.098;2024-03-07T05:19:08;15.30;;;9.03;;
70825;SDS011;58446;41.490;22.098;2024-03-07T05:21:34;13.88;;;8.95;;
70825;SDS011;58446;41.490;22.098;2024-03-07T05:24:04;14.43;;;9.55;;
70825;SDS011;58446;41.490;22.098;2024-03-07T05:26:34;14.43;;;9.88;;
70825;SDS011;58446;41.490;22.098;2024-03-07T05:29:05;15.20;;;9.13;;
70825;SDS011;58446;41.490;22.098;2024-03-07T05:31:35;14.60;;;9.00;;
70825;SDS011;58446;41.490;22.098;2024-03-07T05:34:12;13.18;;;8.63;;
70825;SDS011;58446;41.490;22.098;2024-03-07T05:36:38;14.18;;;8.98;;
70825;SDS011;58446;41.490;22.098;2024-03-07T05:39:13;14.05;;;9.32;;
70825;SDS011;58446;41.490;22.098;2024-03-07T05:41:40;14.00;;;8.60;;
70825;SDS011;58446;41.490;22.098;2024-03-07T05:44:07;13.95;;;9.32;;
70825;SDS011;58446;41.490;22.098;2024-03-07T05:46:39;13.30;;;8.10;;
70825;SDS011;58446;41.490;22.098;2024-03-07T05:49:13;13.80;;;8.45;;
70825;SDS011;58446;41.490;22.098;2024-03-07T05:51:40;14.82;;;8.75;;
70825;SDS011;58446;41.490;22.098;2024-03-07T05:54:12;14.57;;;9.20;;
70825;SDS011;58446;41.490;22.098;2024-03-07T05:56:38;20.50;;;12.35;;
70825;SDS011;58446;41.490;22.098;2024-03-07T05:59:07;15.18;;;10.73;;
70825;SDS011;58446;41.490;22.098;2024-03-07T06:01:35;19.13;;;10.50;;
70825;SDS011;58446;41.490;22.098;2024-03-07T06:04:05;16.53;;;10.00;;
70825;SDS011;58446;41.490;22.098;2024-03-07T06:06:32;16.25;;;10.90;;
70825;SDS011;58446;41.490;22.098;2024-03-07T06:09:00;21.95;;;11.77;;
70825;SDS011;58446;41.490;22.098;2024-03-07T06:11:27;25.73;;;19.10;;
70825;SDS011;58446;41.490;22.098;2024-03-07T06:13:53;25.00;;;17.63;;
70825;SDS011;58446;41.490;22.098;2024-03-07T06:16:18;18.58;;;13.25;;
70825;SDS011;58446;41.490;22.098;2024-03-07T06:18:45;20.48;;;13.32;;
70825;SDS011;58446;41.490;22.098;2024-03-07T06:21:12;23.70;;;15.23;;
70825;SDS011;58446;41.490;22.098;2024-03-07T06:23:38;23.27;;;14.32;;
70825;SDS011;58446;41.490;22.098;2024-03-07T06:26:04;23.52;;;16.17;;
70825;SDS011;58446;41.490;22.098;2024-03-07T06:28:38;28.55;;;18.08;;
70825;SDS011;58446;41.490;22.098;2024-03-07T06:31:04;29.17;;;18.33;;
70825;SDS011;58446;41.490;22.098;2024-03-07T06:33:33;23.30;;;16.73;;
70825;SDS011;58446;41.490;22.098;2024-03-07T06:35:59;20.38;;;14.43;;
70825;SDS011;58446;41.490;22.098;2024-03-07T06:38:26;19.02;;;12.77;;
70825;SDS011;58446;41.490;22.098;2024-03-07T06:40:52;13.13;;;7.82;;
70825;SDS011;58446;41.490;22.098;2024-03-07T06:43:18;13.10;;;8.33;;
70825;SDS011;58446;41.490;22.098;2024-03-07T06:45:43;8.88;;;4.90;;
70825;SDS011;58446;41.490;22.098;2024-03-07T06:48:11;7.55;;;4.30;;
70825;SDS011;58446;41.490;22.098;2024-03-07T06:50:39;7.70;;;5.00;;
70825;SDS011;58446;41.490;22.098;2024-03-07T06:53:05;10.13;;;6.20;;
70825;SDS011;58446;41.490;22.098;2024-03-07T06:55:32;6.65;;;3.25;;
70825;SDS011;58446;41.490;22.098;2024-03-07T06:58:01;5.68;;;3.03;;
70825;SDS011;58446;41.490;22.098;2024-03-07T07:00:29;5.60;;;3.25;;
70825;SDS011;58446;41.490;22.098;2024-03-07T07:02:57;6.40;;;3.15;;
70825;SDS011;58446;41.490;22.098;2024-03-07T07:05:22;5.57;;;2.93;;
70825;SDS011;58446;41.490;22.098;2024-03-07T07:07:48;6.57;;;3.90;;
70825;SDS011;58446;41.490;22.098;2024-03-07T07:10:14;7.97;;;4.00;;
70825;SDS011;58446;41.490;22.098;2024-03-07T07:12:46;11.88;;;5.93;;
70825;SDS011;58446;41.490;22.098;2024-03-07T07:15:19;14.38;;;9.00;;
70825;SDS011;58446;41.490;22.098;2024-03-07T07:17:45;11.02;;;7.32;;
70825;SDS011;58446;41.490;22.098;2024-03-07T07:20:12;8.80;;;5.80;;
70825;SDS011;58446;41.490;22.098;2024-03-07T07:22:41;6.22;;;4.03;;
70825;SDS011;58446;41.490;22.098;2024-03-07T07:25:07;8.50;;;3.85;;
70825;SDS011;58446;41.490;22.098;2024-03-07T07:30:12;5.40;;;2.85;;
70825;SDS011;58446;41.490;22.098;2024-03-07T07:32:41;7.00;;;3.57;;
70825;SDS011;58446;41.490;22.098;2024-03-07T07:35:08;7.22;;;4.22;;
70825;SDS011;58446;41.490;22.098;2024-03-07T07:37:41;5.97;;;3.60;;
70825;SDS011;58446;41.490;22.098;2024-03-07T07:40:09;6.25;;;2.95;;
70825;SDS011;58446;41.490;22.098;2024-03-07T07:42:42;7.30;;;3.67;;
70825;SDS011;58446;41.490;22.098;2024-03-07T07:45:09;40.43;;;16.83;;
70825;SDS011;58446;41.490;22.098;2024-03-07T07:47:42;38.17;;;19.25;;
70825;SDS011;58446;41.490;22.098;2024-03-07T07:50:09;25.80;;;13.90;;
70825;SDS011;58446;41.490;22.098;2024-03-07T07:52:42;17.83;;;10.48;;
70825;SDS011;58446;41.490;22.098;2024-03-07T07:55:08;11.98;;;6.45;;
70825;SDS011;58446;41.490;22.098;2024-03-07T07:57:44;9.43;;;4.73;;
70825;SDS011;58446;41.490;22.098;2024-03-07T08:00:14;8.38;;;5.05;;
70825;SDS011;58446;41.490;22.098;2024-03-07T08:02:53;8.65;;;4.55;;
70825;SDS011;58446;41.490;22.098;2024-03-07T08:05:24;11.05;;;6.40;;
70825;SDS011;58446;41.490;22.098;2024-03-07T08:07:53;8.73;;;5.28;;
70825;SDS011;58446;41.490;22.098;2024-03-07T08:10:20;10.90;;;5.77;;
70825;SDS011;58446;41.490;22.098;2024-03-07T08:12:49;8.30;;;4.82;;
70825;SDS011;58446;41.490;22.098;2024-03-07T08:15:15;7.57;;;4.40;;
70825;SDS011;58446;41.490;22.098;2024-03-07T08:17:44;6.97;;;3.50;;
70825;SDS011;58446;41.490;22.098;2024-03-07T08:20:12;8.00;;;4.32;;
70825;SDS011;58446;41.490;22.098;2024-03-07T08:22:39;8.87;;;4.53;;
70825;SDS011;58446;41.490;22.098;2024-03-07T08:25:14;7.22;;;3.83;;
70825;SDS011;58446;41.490;22.098;2024-03-07T08:27:41;7.40;;;3.58;;
70825;SDS011;58446;41.490;22.098;2024-03-07T08:30:08;5.88;;;2.97;;
70825;SDS011;58446;41.490;22.098;2024-03-07T08:32:39;5.43;;;3.15;;
70825;SDS011;58446;41.490;22.098;2024-03-07T08:35:09;6.23;;;3.20;;
70825;SDS011;58446;41.490;22.098;2024-03-07T08:37:37;6.00;;;2.70;;
70825;SDS011;58446;41.490;22.098;2024-03-07T08:40:03;5.40;;;2.70;;
70825;SDS011;58446;41.490;22.098;2024-03-07T08:42:30;5.95;;;3.00;;
70825;SDS011;58446;41.490;22.098;2024-03-07T08:44:58;7.55;;;3.30;;
70825;SDS011;58446;41.490;22.098;2024-03-07T08:47:25;6.57;;;2.90;;
70825;SDS011;58446;41.490;22.098;2024-03-07T08:49:51;6.60;;;3.05;;
70825;SDS011;58446;41.490;22.098;2024-03-07T08:52:17;6.20;;;2.93;;
70825;SDS011;58446;41.490;22.098;2024-03-07T08:54:43;7.10;;;3.03;;
70825;SDS011;58446;41.490;22.098;2024-03-07T08:57:09;9.02;;;3.33;;
70825;SDS011;58446;41.490;22.098;2024-03-07T08:59:35;9.23;;;3.70;;
70825;SDS011;58446;41.490;22.098;2024-03-07T09:02:01;5.25;;;2.90;;
70825;SDS011;58446;41.490;22.098;2024-03-07T09:04:27;7.35;;;3.70;;
70825;SDS011;58446;41.490;22.098;2024-03-07T09:06:54;10.40;;;4.63;;
70825;SDS011;58446;41.490;22.098;2024-03-07T09:09:20;6.73;;;3.20;;
70825;SDS011;58446;41.490;22.098;2024-03-07T09:11:45;6.50;;;3.63;;
70825;SDS011;58446;41.490;22.098;2024-03-07T09:14:12;7.18;;;3.47;;
70825;SDS011;58446;41.490;22.098;2024-03-07T09:16:37;6.13;;;3.03;;
70825;SDS011;58446;41.490;22.098;2024-03-07T09:19:03;9.00;;;4.00;;
70825;SDS011;58446;41.490;22.098;2024-03-07T09:21:29;6.75;;;2.92;;
70825;SDS011;58446;41.490;22.098;2024-03-07T09:23:55;7.00;;;3.37;;
70825;SDS011;58446;41.490;22.098;2024-03-07T09:26:20;6.10;;;3.30;;
70825;SDS011;58446;41.490;22.098;2024-03-07T09:28:46;9.20;;;3.47;;
70825;SDS011;58446;41.490;22.098;2024-03-07T09:31:14;5.80;;;2.50;;
70825;SDS011;58446;41.490;22.098;2024-03-07T09:33:40;5.43;;;2.85;;
70825;SDS011;58446;41.490;22.098;2024-03-07T09:36:05;6.93;;;2.83;;
70825;SDS011;58446;41.490;22.098;2024-03-07T09:38:32;8.13;;;3.50;;
70825;SDS011;58446;41.490;22.098;2024-03-07T09:40:58;9.07;;;4.37;;
70825;SDS011;58446;41.490;22.098;2024-03-07T09:43:24;6.53;;;3.57;;
70825;SDS011;58446;41.490;22.098;2024-03-07T09:45:53;6.47;;;2.75;;
70825;SDS011;58446;41.490;22.098;2024-03-07T09:48:20;6.72;;;3.17;;
70825;SDS011;58446;41.490;22.098;2024-03-07T09:50:50;13.00;;;4.40;;
70825;SDS011;58446;41.490;22.098;2024-03-07T09:53:20;13.27;;;5.15;;
70825;SDS011;58446;41.490;22.098;2024-03-07T09:55:46;9.60;;;3.87;;
70825;SDS011;58446;41.490;22.098;2024-03-07T09:58:13;5.28;;;2.53;;
70825;SDS011;58446;41.490;22.098;2024-03-07T10:00:45;4.63;;;2.25;;
70825;SDS011;58446;41.490;22.098;2024-03-07T10:03:12;7.57;;;2.60;;
70825;SDS011;58446;41.490;22.098;2024-03-07T10:05:41;7.88;;;3.35;;
70825;SDS011;58446;41.490;22.098;2024-03-07T10:08:07;6.20;;;2.90;;
70825;SDS011;58446;41.490;22.098;2024-03-07T10:10:33;7.05;;;3.20;;
70825;SDS011;58446;41.490;22.098;2024-03-07T10:12:59;6.63;;;2.43;;
70825;SDS011;58446;41.490;22.098;2024-03-07T10:15:30;5.50;;;1.90;;
70825;SDS011;58446;41.490;22.098;2024-03-07T10:17:57;6.65;;;2.45;;
70825;SDS011;58446;41.490;22.098;2024-03-07T10:20:22;7.50;;;3.67;;
70825;SDS011;58446;41.490;22.098;2024-03-07T10:22:49;5.82;;;2.65;;
70825;SDS011;58446;41.490;22.098;2024-03-07T10:25:21;5.80;;;2.45;;
70825;SDS011;58446;41.490;22.098;2024-03-07T10:27:50;5.95;;;2.80;;
70825;SDS011;58446;41.490;22.098;2024-03-07T10:30:16;8.23;;;4.00;;
70825;SDS011;58446;41.490;22.098;2024-03-07T10:32:46;15.87;;;7.00;;
70825;SDS011;58446;41.490;22.098;2024-03-07T10:35:13;17.05;;;8.40;;
70825;SDS011;58446;41.490;22.098;2024-03-07T10:37:39;7.97;;;3.63;;
70825;SDS011;58446;41.490;22.098;2024-03-07T10:40:06;9.07;;;4.45;;
70825;SDS011;58446;41.490;22.098;2024-03-07T10:42:44;8.10;;;4.70;;
70825;SDS011;58446;41.490;22.098;2024-03-07T10:45:11;10.27;;;4.30;;
70825;SDS011;58446;41.490;22.098;2024-03-07T10:47:41;5.72;;;2.50;;
70825;SDS011;58446;41.490;22.098;2024-03-07T10:50:19;9.43;;;4.70;;
70825;SDS011;58446;41.490;22.098;2024-03-07T10:52:59;5.40;;;2.70;;
70825;SDS011;58446;41.490;22.098;2024-03-07T11:01:47;7.38;;;2.83;;
70825;SDS011;58446;41.490;22.098;2024-03-07T11:04:19;4.90;;;2.45;;
70825;SDS011;58446;41.490;22.098;2024-03-07T11:06:48;6.93;;;3.20;;
70825;SDS011;58446;41.490;22.098;2024-03-07T11:09:15;6.53;;;2.58;;
70825;SDS011;58446;41.490;22.098;2024-03-07T11:11:48;5.60;;;2.63;;
70825;SDS011;58446;41.490;22.098;2024-03-07T11:14:14;5.30;;;2.40;;
70825;SDS011;58446;41.490;22.098;2024-03-07T11:16:41;5.88;;;2.63;;
70825;SDS011;58446;41.490;22.098;2024-03-07T11:21:55;5.10;;;2.30;;
70825;SDS011;58446;41.490;22.098;2024-03-07T11:24:30;6.63;;;2.57;;
70825;SDS011;58446;41.490;22.098;2024-03-07T11:27:02;5.13;;;2.03;;
70825;SDS011;58446;41.490;22.098;2024-03-07T11:29:51;5.50;;;2.42;;
70825;SDS011;58446;41.490;22.098;2024-03-07T11:32:19;5.68;;;2.30;;
70825;SDS011;58446;41.490;22.098;2024-03-07T11:34:48;5.47;;;2.05;;
70825;SDS011;58446;41.490;22.098;2024-03-07T11:40:12;4.82;;;1.80;;
70825;SDS011;58446;41.490;22.098;2024-03-07T11:42:44;7.97;;;2.67;;
70825;SDS011;58446;41.490;22.098;2024-03-07T11:45:12;5.63;;;2.83;;
70825;SDS011;58446;41.490;22.098;2024-03-07T11:47:50;7.80;;;2.88;;
70825;SDS011;58446;41.490;22.098;2024-03-07T11:50:35;11.63;;;4.57;;
70825;SDS011;58446;41.490;22.098;2024-03-07T11:53:02;6.35;;;2.75;;
70825;SDS011;58446;41.490;22.098;2024-03-07T11:55:31;8.80;;;4.00;;
70825;SDS011;58446;41.490;22.098;2024-03-07T11:58:16;9.38;;;3.97;;
70825;SDS011;58446;41.490;22.098;2024-03-07T12:00:46;6.90;;;2.30;;
70825;SDS011;58446;41.490;22.098;2024-03-07T12:03:13;5.20;;;1.87;;
70825;SDS011;58446;41.490;22.098;2024-03-07T12:05:42;5.85;;;2.17;;
70825;SDS011;58446;41.490;22.098;2024-03-07T12:08:09;6.18;;;2.63;;
70825;SDS011;58446;41.490;22.098;2024-03-07T12:10:41;6.45;;;2.28;;
70825;SDS011;58446;41.490;22.098;2024-03-07T12:13:12;5.18;;;1.83;;
70825;SDS011;58446;41.490;22.098;2024-03-07T12:15:44;9.77;;;2.43;;
70825;SDS011;58446;41.490;22.098;2024-03-07T12:18:10;6.78;;;2.00;;
70825;SDS011;58446;41.490;22.098;2024-03-07T12:20:42;5.53;;;2.53;;
70825;SDS011;58446;41.490;22.098;2024-03-07T12:23:15;6.35;;;2.58;;
70825;SDS011;58446;41.490;22.098;2024-03-07T12:25:44;6.03;;;2.00;;
70825;SDS011;58446;41.490;22.098;2024-03-07T12:28:11;6.10;;;1.20;;
70825;SDS011;58446;41.490;22.098;2024-03-07T12:30:49;5.30;;;1.92;;
70825;SDS011;58446;41.490;22.098;2024-03-07T12:33:17;6.65;;;2.47;;
70825;SDS011;58446;41.490;22.098;2024-03-07T12:35:43;6.85;;;2.25;;
70825;SDS011;58446;41.490;22.098;2024-03-07T12:38:10;6.90;;;2.80;;
70825;SDS011;58446;41.490;22.098;2024-03-07T12:40:38;6.80;;;2.80;;
70825;SDS011;58446;41.490;22.098;2024-03-07T12:43:17;5.40;;;2.25;;
70825;SDS011;58446;41.490;22.098;2024-03-07T12:45:53;6.50;;;2.03;;
70825;SDS011;58446;41.490;22.098;2024-03-07T12:48:19;5.20;;;2.22;;
70825;SDS011;58446;41.490;22.098;2024-03-07T12:50:49;6.13;;;2.43;;
70825;SDS011;58446;41.490;22.098;2024-03-07T12:53:24;8.02;;;2.30;;
70825;SDS011;58446;41.490;22.098;2024-03-07T12:55:54;6.07;;;2.63;;
70825;SDS011;58446;41.490;22.098;2024-03-07T12:58:20;5.20;;;2.30;;
70825;SDS011;58446;41.490;22.098;2024-03-07T13:00:54;6.00;;;2.37;;
70825;SDS011;58446;41.490;22.098;2024-03-07T13:03:24;8.80;;;2.90;;
70825;SDS011;58446;41.490;22.098;2024-03-07T13:05:57;5.53;;;2.65;;
70825;SDS011;58446;41.490;22.098;2024-03-07T13:08:27;6.43;;;2.20;;
70825;SDS011;58446;41.490;22.098;2024-03-07T13:10:54;5.55;;;2.38;;
70825;SDS011;58446;41.490;22.098;2024-03-07T13:13:20;5.07;;;1.67;;
70825;SDS011;58446;41.490;22.098;2024-03-07T13:15:46;8.38;;;2.35;;
70825;SDS011;58446;41.490;22.098;2024-03-07T13:18:12;5.18;;;2.33;;
70825;SDS011;58446;41.490;22.098;2024-03-07T13:20:39;5.65;;;2.47;;
70825;SDS011;58446;41.490;22.098;2024-03-07T13:23:08;8.60;;;3.70;;
70825;SDS011;58446;41.490;22.098;2024-03-07T13:25:35;5.53;;;2.40;;
70825;SDS011;58446;41.490;22.098;2024-03-07T13:30:34;5.68;;;1.75;;
70825;SDS011;58446;41.490;22.098;2024-03-07T13:33:01;5.82;;;2.20;;
70825;SDS011;58446;41.490;22.098;2024-03-07T13:35:28;6.80;;;2.50;;
70825;SDS011;58446;41.490;22.098;2024-03-07T13:37:55;5.68;;;1.88;;
70825;SDS011;58446;41.490;22.098;2024-03-07T13:40:25;12.75;;;5.25;;
70825;SDS011;58446;41.490;22.098;2024-03-07T13:42:58;10.00;;;3.80;;
70825;SDS011;58446;41.490;22.098;2024-03-07T13:45:25;6.75;;;3.05;;
70825;SDS011;58446;41.490;22.098;2024-03-07T13:48:13;5.97;;;2.40;;
70825;SDS011;58446;41.490;22.098;2024-03-07T13:50:42;5.82;;;1.98;;
70825;SDS011;58446;41.490;22.098;2024-03-07T13:53:09;5.35;;;2.35;;
70825;SDS011;58446;41.490;22.098;2024-03-07T14:00:18;6.47;;;2.03;;
70825;SDS011;58446;41.490;22.098;2024-03-07T14:02:37;19.83;;;6.63;;
70825;SDS011;58446;41.490;22.098;2024-03-07T14:13:39;6.55;;;3.35;;
70825;SDS011;58446;41.490;22.098;2024-03-07T14:25:43;5.97;;;2.42;;
70825;SDS011;58446;41.490;22.098;2024-03-07T14:31:07;4.90;;;2.20;;
70825;SDS011;58446;41.490;22.098;2024-03-07T14:33:52;4.97;;;2.13;;
70825;SDS011;58446;41.490;22.098;2024-03-07T14:36:45;5.45;;;2.00;;
70825;SDS011;58446;41.490;22.098;2024-03-07T14:39:18;5.13;;;1.95;;
70825;SDS011;58446;41.490;22.098;2024-03-07T14:41:49;5.70;;;2.40;;
70825;SDS011;58446;41.490;22.098;2024-03-07T14:44:19;5.27;;;2.27;;
70825;SDS011;58446;41.490;22.098;2024-03-07T14:46:46;10.65;;;6.35;;
70825;SDS011;58446;41.490;22.098;2024-03-07T14:49:14;7.82;;;3.78;;
70825;SDS011;58446;41.490;22.098;2024-03-07T14:51:42;9.05;;;5.03;;
70825;SDS011;58446;41.490;22.098;2024-03-07T14:54:08;6.30;;;2.70;;
70825;SDS011;58446;41.490;22.098;2024-03-07T14:56:35;7.88;;;3.20;;
70825;SDS011;58446;41.490;22.098;2024-03-07T14:59:01;6.47;;;3.22;;
70825;SDS011;58446;41.490;22.098;2024-03-07T15:01:31;8.30;;;3.00;;
70825;SDS011;58446;41.490;22.098;2024-03-07T15:03:59;7.85;;;3.80;;
70825;SDS011;58446;41.490;22.098;2024-03-07T15:06:25;6.57;;;3.70;;
70825;SDS011;58446;41.490;22.098;2024-03-07T15:08:51;6.65;;;3.83;;
70825;SDS011;58446;41.490;22.098;2024-03-07T15:13:45;11.30;;;7.73;;